Terminal Aerodrome Forecast
Issued by NWS Grand Forks, ND

Home | Current Version | Previous Version | Text Only | Print | Product List | Glossary On
Versions: 1 2 3 4 5 6 7 8 9 10 11 12
000
FTUS43 KFGF 280520
TAFGFK
TAF
KGFK 280520Z 2806/2906 VRB04KT P6SM SCT100 BKN250
     FM280900 14007KT P6SM -SHRA OVC050
     FM281500 18014G20KT P6SM VCSH OVC060
     FM282000 21015G24KT P6SM VCTS BKN050CB
     FM290300 36015G21KT P6SM -SHRA OVC030=

USA.gov is the U.S. government's official web portal to all federal, state and local government web resources and services.